createdAt,value
2017-03-11T00:00:49.998Z,0
2017-03-11T00:02:03.698Z,0
2017-03-11T00:03:15.617Z,0
2017-03-11T00:04:29.346Z,0
2017-03-11T00:05:43.044Z,0
2017-03-11T00:06:56.143Z,0
2017-03-11T00:08:09.230Z,0
2017-03-11T00:09:22.923Z,0
2017-03-11T00:10:36.645Z,0
2017-03-11T00:11:50.332Z,0
2017-03-11T00:13:04.037Z,0
2017-03-11T00:14:17.790Z,0
2017-03-11T00:15:31.517Z,0
2017-03-11T00:16:44.578Z,0
2017-03-11T00:17:58.303Z,0
2017-03-11T00:19:11.415Z,0
2017-03-11T00:20:25.108Z,0
2017-03-11T00:21:38.775Z,0
2017-03-11T00:22:52.457Z,0
2017-03-11T00:24:06.190Z,0
2017-03-11T00:25:19.897Z,0
2017-03-11T00:26:33.618Z,0
2017-03-11T00:27:47.314Z,0
2017-03-11T00:29:00.999Z,0
2017-03-11T00:30:14.665Z,0
2017-03-11T00:31:27.844Z,0
2017-03-11T00:32:41.523Z,0
2017-03-11T00:33:55.208Z,0
2017-03-11T00:35:08.317Z,0
2017-03-11T00:36:22.047Z,0
2017-03-11T00:37:35.748Z,0
2017-03-11T00:38:49.427Z,0
2017-03-11T00:40:02.543Z,0
2017-03-11T00:41:16.233Z,0
2017-03-11T00:42:29.971Z,0
2017-03-11T00:43:43.083Z,0
2017-03-11T00:44:56.767Z,0
2017-03-11T00:46:10.475Z,0
2017-03-11T00:47:24.200Z,0
2017-03-11T00:48:37.913Z,0
2017-03-11T00:49:51.641Z,0
2017-03-11T00:51:05.312Z,0
2017-03-11T00:52:18.459Z,0
2017-03-11T00:53:32.152Z,0
2017-03-11T00:54:45.891Z,0
2017-03-11T00:55:59.600Z,0
2017-03-11T00:57:13.323Z,0
2017-03-11T00:58:26.478Z,0
2017-03-11T00:59:39.626Z,0
2017-03-11T01:00:53.322Z,0
2017-03-11T01:02:06.416Z,0
2017-03-11T01:03:20.143Z,0
2017-03-11T01:04:33.975Z,0
2017-03-11T01:05:47.698Z,0
2017-03-11T01:07:00.821Z,0
2017-03-11T01:08:13.413Z,0
2017-03-11T01:09:27.203Z,0
2017-03-11T01:10:40.294Z,0
2017-03-11T01:11:53.417Z,0
2017-03-11T01:13:07.097Z,0
2017-03-11T01:14:21.178Z,0
2017-03-11T01:15:35.116Z,0
2017-03-11T01:16:48.805Z,0
2017-03-11T01:18:02.504Z,0
2017-03-11T01:19:16.314Z,0
2017-03-11T01:20:30.396Z,0
2017-03-11T01:21:44.112Z,0
2017-03-11T01:22:57.788Z,0
2017-03-11T01:24:11.934Z,0
2017-03-11T01:25:25.888Z,0
2017-03-11T01:26:38.536Z,0
2017-03-11T01:27:52.253Z,0
2017-03-11T01:29:06.065Z,0
2017-03-11T01:30:20.178Z,0
2017-03-11T01:31:34.089Z,0
2017-03-11T01:32:47.807Z,0
2017-03-11T01:34:01.519Z,0
2017-03-11T01:35:14.740Z,0
2017-03-11T01:36:28.265Z,0
2017-03-11T01:37:42.075Z,0
2017-03-11T01:38:55.766Z,0
2017-03-11T01:40:08.959Z,0
2017-03-11T01:41:22.799Z,0
2017-03-11T01:42:36.638Z,0
2017-03-11T01:43:50.306Z,0
2017-03-11T01:45:04.016Z,0
2017-03-11T01:46:18.137Z,0
2017-03-11T01:47:32.035Z,0
2017-03-11T01:48:43.961Z,0
2017-03-11T01:49:57.072Z,0
2017-03-11T01:51:10.784Z,0
2017-03-11T01:52:24.875Z,0
2017-03-11T01:53:38.738Z,0
2017-03-11T01:54:52.422Z,0
2017-03-11T01:56:06.181Z,0
2017-03-11T01:57:19.976Z,0
2017-03-11T01:58:33.908Z,0
2017-03-11T01:59:47.635Z,0
2017-03-11T02:01:01.351Z,0
2017-03-11T02:02:14.743Z,0
2017-03-11T02:03:27.994Z,0
2017-03-11T02:04:41.763Z,0
2017-03-11T02:05:55.453Z,0
2017-03-11T02:07:09.152Z,0
2017-03-11T02:08:22.702Z,0
2017-03-11T02:09:36.654Z,0
2017-03-11T02:10:50.384Z,0
2017-03-11T02:12:03.560Z,0
2017-03-11T02:13:17.131Z,0
2017-03-11T02:14:31.465Z,0
2017-03-11T02:15:45.393Z,0
2017-03-11T02:16:59.457Z,0
2017-03-11T02:18:13.766Z,0
2017-03-11T02:19:27.952Z,0
2017-03-11T02:20:41.984Z,0
2017-03-11T02:21:55.956Z,0
2017-03-11T02:23:09.837Z,0
2017-03-11T02:24:24.144Z,0
2017-03-11T02:25:37.160Z,0
2017-03-11T02:26:51.453Z,0
2017-03-11T02:28:05.731Z,0
2017-03-11T02:29:20.131Z,0
2017-03-11T02:30:34.387Z,0
2017-03-11T02:31:48.005Z,0
2017-03-11T02:33:02.342Z,0
2017-03-11T02:34:16.747Z,0
2017-03-11T02:35:31.066Z,0
2017-03-11T02:36:45.114Z,0
2017-03-11T02:37:59.135Z,0
2017-03-11T02:39:13.369Z,0
2017-03-11T02:40:27.153Z,0
2017-03-11T02:41:40.783Z,0
2017-03-11T02:42:54.340Z,0
2017-03-11T02:44:08.635Z,0
2017-03-11T02:45:23.046Z,0
2017-03-11T02:46:37.321Z,0
2017-03-11T02:47:50.935Z,0
2017-03-11T02:49:05.191Z,0
2017-03-11T02:50:19.557Z,0
2017-03-11T02:51:33.283Z,0
2017-03-11T02:52:47.608Z,0
2017-03-11T02:54:01.309Z,0
2017-03-11T02:55:15.685Z,0
2017-03-11T02:56:29.412Z,0
2017-03-11T02:57:43.608Z,0
2017-03-11T02:58:57.729Z,0
2017-03-11T03:00:11.971Z,0
2017-03-11T03:01:25.708Z,0
2017-03-11T03:02:39.847Z,0
2017-03-11T03:03:53.288Z,0
2017-03-11T03:05:07.494Z,0
2017-03-11T03:06:21.234Z,0
2017-03-11T03:07:35.437Z,0
2017-03-11T03:08:49.494Z,0
2017-03-11T03:10:03.807Z,0
2017-03-11T03:11:16.906Z,0
2017-03-11T03:12:31.240Z,0
2017-03-11T03:13:45.537Z,0
2017-03-11T03:14:59.981Z,0
2017-03-11T03:16:14.583Z,0
2017-03-11T03:17:28.892Z,0
2017-03-11T03:18:43.169Z,0
2017-03-11T03:19:57.521Z,0
2017-03-11T03:21:11.926Z,0
2017-03-11T03:22:26.268Z,0
2017-03-11T03:23:40.642Z,0
2017-03-11T03:24:54.969Z,0
2017-03-11T03:26:09.332Z,0
2017-03-11T03:27:23.686Z,0
2017-03-11T03:28:37.958Z,0
2017-03-11T03:29:52.318Z,0
2017-03-11T03:31:06.734Z,0
2017-03-11T03:32:21.098Z,0
2017-03-11T03:33:35.419Z,0
2017-03-11T03:34:49.790Z,0
2017-03-11T03:36:04.085Z,0
2017-03-11T03:37:18.491Z,0
2017-03-11T03:38:32.214Z,0
2017-03-11T03:39:46.585Z,0
2017-03-11T03:41:00.946Z,0
2017-03-11T03:42:15.395Z,0
2017-03-11T03:43:29.085Z,0
2017-03-11T03:44:43.342Z,0
2017-03-11T03:45:56.451Z,0
2017-03-11T03:47:10.848Z,0
2017-03-11T03:48:24.664Z,0
2017-03-11T03:49:39.075Z,0
2017-03-11T03:50:53.416Z,0
2017-03-11T03:52:07.614Z,0
2017-03-11T03:53:21.378Z,0
2017-03-11T03:54:35.041Z,0
2017-03-11T03:55:49.346Z,0
2017-03-11T03:57:03.625Z,0
2017-03-11T03:58:17.365Z,0
2017-03-11T03:59:30.431Z,0
2017-03-11T04:00:43.369Z,0
2017-03-11T04:01:57.669Z,0
2017-03-11T04:03:11.428Z,0
2017-03-11T04:04:25.806Z,0
2017-03-11T04:05:38.796Z,0
2017-03-11T04:06:53.099Z,0
2017-03-11T04:08:07.346Z,0
2017-03-11T04:09:21.110Z,0
2017-03-11T04:10:35.425Z,0
2017-03-11T04:11:49.764Z,0
2017-03-11T04:13:04.142Z,0
2017-03-11T04:14:17.906Z,0
2017-03-11T04:15:31.599Z,0
2017-03-11T04:16:45.829Z,0
2017-03-11T04:18:00.147Z,0
2017-03-11T04:19:14.440Z,0
2017-03-11T04:20:28.809Z,0
2017-03-11T04:21:43.090Z,0
2017-03-11T04:22:57.456Z,0
2017-03-11T04:24:11.790Z,0
2017-03-11T04:25:26.154Z,0
2017-03-11T04:26:39.835Z,0
2017-03-11T04:27:53.602Z,0
2017-03-11T04:29:07.970Z,0
2017-03-11T04:30:22.394Z,0
2017-03-11T04:31:36.752Z,0
2017-03-11T04:32:51.204Z,0
2017-03-11T04:34:05.638Z,0
2017-03-11T04:35:19.952Z,0
2017-03-11T04:36:34.252Z,0
2017-03-11T04:37:48.532Z,0
2017-03-11T04:39:02.904Z,0
2017-03-11T04:40:16.618Z,0
2017-03-11T04:41:30.958Z,0
2017-03-11T04:42:45.336Z,0
2017-03-11T04:43:59.743Z,0
2017-03-11T04:45:13.443Z,0
2017-03-11T04:46:27.120Z,0
2017-03-11T04:47:41.438Z,0
2017-03-11T04:48:55.778Z,0
2017-03-11T04:50:08.836Z,0
2017-03-11T04:51:21.242Z,0
2017-03-11T04:52:34.946Z,0
2017-03-11T04:53:49.192Z,0
2017-03-11T04:55:03.440Z,0
2017-03-11T04:56:17.795Z,0
2017-03-11T04:57:32.142Z,0
2017-03-11T04:58:46.486Z,0
2017-03-11T05:00:00.813Z,0
2017-03-11T05:01:15.174Z,0
2017-03-11T05:02:29.617Z,0
2017-03-11T05:03:43.922Z,0
2017-03-11T05:04:58.243Z,0
2017-03-11T05:06:11.954Z,0
2017-03-11T05:07:26.231Z,0
2017-03-11T05:08:40.239Z,0
2017-03-11T05:09:54.198Z,0
2017-03-11T05:11:08.136Z,0
2017-03-11T05:12:22.376Z,0
2017-03-11T05:13:36.456Z,0
2017-03-11T05:14:50.296Z,0
2017-03-11T05:16:04.190Z,0
2017-03-11T05:17:18.259Z,0
2017-03-11T05:18:32.417Z,0
2017-03-11T05:19:45.566Z,0
2017-03-11T05:20:59.288Z,0
2017-03-11T05:22:13.457Z,0
2017-03-11T05:23:26.803Z,0
2017-03-11T05:24:40.022Z,0
2017-03-11T05:25:53.740Z,0
2017-03-11T05:27:07.433Z,0
2017-03-11T05:28:20.976Z,0
2017-03-11T05:29:34.875Z,0
2017-03-11T05:30:48.669Z,0
2017-03-11T05:32:02.505Z,0
2017-03-11T05:33:16.397Z,0
2017-03-11T05:34:30.561Z,0
2017-03-11T05:35:44.341Z,0
2017-03-11T05:36:57.469Z,0
2017-03-11T05:38:11.569Z,0
2017-03-11T05:39:25.524Z,0
2017-03-11T05:40:38.167Z,0
2017-03-11T05:41:51.263Z,0
2017-03-11T05:43:04.998Z,0
2017-03-11T05:44:19.036Z,0
2017-03-11T05:45:32.897Z,0
2017-03-11T05:46:46.585Z,0
2017-03-11T05:48:00.299Z,0
2017-03-11T05:49:14.056Z,0
2017-03-11T05:50:27.552Z,0
2017-03-11T05:51:41.358Z,0
2017-03-11T05:52:55.054Z,0
2017-03-11T05:54:08.867Z,0
2017-03-11T05:55:22.684Z,0
2017-03-11T05:56:36.413Z,0
2017-03-11T05:57:49.554Z,0
2017-03-11T05:59:03.316Z,0
2017-03-11T06:00:17.307Z,0
2017-03-11T06:01:31.202Z,0
2017-03-11T06:02:44.889Z,0
2017-03-11T06:03:58.579Z,0
2017-03-11T06:05:11.681Z,0
2017-03-11T06:06:25.576Z,0
2017-03-11T06:07:38.705Z,0
2017-03-11T06:08:52.388Z,0
2017-03-11T06:10:05.472Z,0
2017-03-11T06:11:19.281Z,0
2017-03-11T06:12:33.129Z,0
2017-03-11T06:13:46.824Z,0
2017-03-11T06:15:00.527Z,0
2017-03-11T06:16:14.219Z,0
2017-03-11T06:17:27.389Z,0
2017-03-11T06:18:41.093Z,0
2017-03-11T06:19:54.760Z,0
2017-03-11T06:21:08.426Z,0
2017-03-11T06:22:22.122Z,0
2017-03-11T06:23:35.203Z,0
2017-03-11T06:24:48.865Z,0
2017-03-11T06:26:02.551Z,0
2017-03-11T06:27:16.250Z,0
2017-03-11T06:28:29.954Z,0
2017-03-11T06:29:43.625Z,0
2017-03-11T06:30:57.333Z,0
2017-03-11T06:32:11.030Z,0
2017-03-11T06:33:24.751Z,0
2017-03-11T06:34:38.462Z,0
2017-03-11T06:35:52.165Z,0
2017-03-11T06:37:05.883Z,0
2017-03-11T06:38:19.620Z,0
2017-03-11T06:39:33.378Z,0
2017-03-11T06:40:47.044Z,0
2017-03-11T06:42:00.734Z,0
2017-03-11T06:43:14.410Z,0
2017-03-11T06:44:28.135Z,0
2017-03-11T06:45:41.827Z,0
2017-03-11T06:46:55.511Z,0
2017-03-11T06:48:09.189Z,0
2017-03-11T06:49:22.868Z,0
2017-03-11T06:50:36.567Z,0
2017-03-11T06:51:50.262Z,0
2017-03-11T06:53:03.958Z,0
2017-03-11T06:54:17.634Z,0
2017-03-11T06:55:31.352Z,0
2017-03-11T06:56:44.468Z,0
2017-03-11T06:57:58.151Z,0
2017-03-11T06:59:11.870Z,0
2017-03-11T07:00:25.549Z,0
2017-03-11T07:01:39.261Z,0
2017-03-11T07:02:52.951Z,0
2017-03-11T07:04:06.782Z,0
2017-03-11T07:05:19.858Z,0
2017-03-11T07:06:33.575Z,0
2017-03-11T07:07:47.258Z,0
2017-03-11T07:09:01.001Z,0
2017-03-11T07:10:14.778Z,0
2017-03-11T07:11:28.473Z,0
2017-03-11T07:12:42.146Z,0
2017-03-11T07:13:55.842Z,0
2017-03-11T07:15:09.553Z,0
2017-03-11T07:16:23.268Z,0
2017-03-11T07:17:36.360Z,0
2017-03-11T07:18:50.040Z,0
2017-03-11T07:20:03.734Z,0
2017-03-11T07:21:16.820Z,0
2017-03-11T07:22:29.307Z,0
2017-03-11T07:23:43.020Z,0
2017-03-11T07:24:56.713Z,0
2017-03-11T07:26:10.396Z,0
2017-03-11T07:27:24.124Z,0
2017-03-11T07:28:37.828Z,0
2017-03-11T07:29:51.554Z,0
2017-03-11T07:31:05.247Z,0
2017-03-11T07:32:18.928Z,0
2017-03-11T07:33:32.648Z,0
2017-03-11T07:34:45.740Z,0
2017-03-11T07:35:59.451Z,0
2017-03-11T07:37:13.146Z,0
2017-03-11T07:38:26.823Z,0
2017-03-11T07:39:39.322Z,0
2017-03-11T07:40:52.983Z,0
2017-03-11T07:42:06.694Z,0
2017-03-11T07:43:19.826Z,0
2017-03-11T07:44:33.529Z,0
2017-03-11T07:45:47.193Z,0
2017-03-11T07:47:00.882Z,0
2017-03-11T07:48:14.564Z,0
2017-03-11T07:49:28.243Z,0
2017-03-11T07:50:41.941Z,0
2017-03-11T07:51:55.652Z,0
2017-03-11T07:53:09.329Z,0
2017-03-11T07:54:22.420Z,0
2017-03-11T07:55:36.092Z,0
2017-03-11T07:56:49.183Z,0
2017-03-11T07:58:02.855Z,0
2017-03-11T07:59:15.945Z,0
2017-03-11T08:00:29.631Z,0
2017-03-11T08:01:43.319Z,0
2017-03-11T08:02:57.044Z,0
2017-03-11T08:04:10.791Z,0
2017-03-11T08:05:24.527Z,0
2017-03-11T08:06:38.232Z,0
2017-03-11T08:07:51.310Z,0
2017-03-11T08:09:04.425Z,0
2017-03-11T08:10:18.159Z,0
2017-03-11T08:11:31.853Z,0
2017-03-11T08:12:45.549Z,0
2017-03-11T08:13:59.235Z,0
2017-03-11T08:15:12.936Z,0
2017-03-11T08:16:26.638Z,0
2017-03-11T08:17:40.354Z,0
2017-03-11T08:18:54.063Z,0
2017-03-11T08:20:07.745Z,0
2017-03-11T08:21:21.500Z,0
2017-03-11T08:22:35.213Z,0
2017-03-11T08:23:48.893Z,0
2017-03-11T08:25:02.576Z,0
2017-03-11T08:26:15.644Z,0
2017-03-11T08:27:29.349Z,0
2017-03-11T08:28:43.078Z,0
2017-03-11T08:29:57.083Z,0
2017-03-11T08:31:10.792Z,0
2017-03-11T08:32:24.458Z,0
2017-03-11T08:33:38.174Z,0
2017-03-11T08:34:51.869Z,0
2017-03-11T08:36:05.565Z,0
2017-03-11T08:37:18.681Z,0
2017-03-11T08:38:32.395Z,0
2017-03-11T08:39:46.135Z,0
2017-03-11T08:40:59.802Z,0
2017-03-11T08:42:12.908Z,0
2017-03-11T08:43:26.581Z,0
2017-03-11T08:44:39.664Z,4
2017-03-11T08:45:53.353Z,0
2017-03-11T08:47:07.044Z,4
2017-03-11T08:48:20.716Z,4
2017-03-11T08:49:34.394Z,8
2017-03-11T08:50:47.467Z,8
2017-03-11T08:52:01.188Z,12
2017-03-11T08:53:14.893Z,16
2017-03-11T08:54:28.669Z,20
2017-03-11T08:55:42.363Z,28
2017-03-11T08:56:56.031Z,32
2017-03-11T08:58:09.701Z,44
2017-03-11T08:59:23.408Z,60
2017-03-11T09:00:37.130Z,84
2017-03-11T09:01:50.798Z,104
2017-03-11T09:03:04.492Z,128
2017-03-11T09:04:18.169Z,160
2017-03-11T09:05:31.874Z,212
2017-03-11T09:06:45.565Z,248
2017-03-11T09:07:59.236Z,296
2017-03-11T09:09:12.948Z,372
2017-03-11T09:10:26.674Z,444
2017-03-11T09:11:40.377Z,524
2017-03-11T09:12:54.066Z,644
2017-03-11T09:14:07.805Z,748
2017-03-11T09:15:21.544Z,828
2017-03-11T09:16:35.231Z,892
2017-03-11T09:17:48.341Z,1020
2017-03-11T09:19:02.041Z,1356
2017-03-11T09:20:15.760Z,1736
2017-03-11T09:21:29.443Z,1892
2017-03-11T09:22:42.542Z,2056
2017-03-11T09:23:55.638Z,2292
2017-03-11T09:25:09.335Z,2488
2017-03-11T09:26:23.017Z,2600
2017-03-11T09:27:36.138Z,2748
2017-03-11T09:28:49.806Z,2776
2017-03-11T09:30:03.526Z,2868
2017-03-11T09:31:17.216Z,2928
2017-03-11T09:32:30.286Z,3128
2017-03-11T09:33:43.973Z,3448
2017-03-11T09:34:57.644Z,3528
2017-03-11T09:36:11.349Z,4100
2017-03-11T09:37:25.021Z,5012
2017-03-11T09:38:38.725Z,5676
2017-03-11T09:39:52.411Z,5736
2017-03-11T09:41:06.117Z,5712
2017-03-11T09:42:19.815Z,5420
2017-03-11T09:43:32.887Z,5824
2017-03-11T09:44:46.586Z,6524
2017-03-11T09:46:00.281Z,7088
2017-03-11T09:47:13.989Z,8016
2017-03-11T09:48:27.671Z,9148
2017-03-11T09:49:41.403Z,10148
2017-03-11T09:50:55.100Z,11108
2017-03-11T09:52:08.779Z,11788
2017-03-11T09:53:21.870Z,12516
2017-03-11T09:54:35.616Z,12144
2017-03-11T09:55:48.678Z,12160
2017-03-11T09:57:01.816Z,12700
2017-03-11T09:58:15.502Z,13108
2017-03-11T09:59:29.193Z,13924
2017-03-11T10:00:42.878Z,14060
2017-03-11T10:01:56.572Z,14364
2017-03-11T10:03:10.273Z,14520
2017-03-11T10:04:23.972Z,14596
2017-03-11T10:05:37.689Z,16160
2017-03-11T10:06:51.377Z,17664
2017-03-11T10:08:05.094Z,18368
2017-03-11T10:09:18.774Z,13124
2017-03-11T10:10:31.874Z,12492
2017-03-11T10:11:45.563Z,12356
2017-03-11T10:12:58.662Z,12740
2017-03-11T10:14:12.358Z,13804
2017-03-11T10:15:26.043Z,17280
2017-03-11T10:16:39.217Z,18304
2017-03-11T10:17:52.307Z,19616
2017-03-11T10:19:06.026Z,23712
2017-03-11T10:20:19.735Z,21504
2017-03-11T10:21:33.440Z,21280
2017-03-11T10:22:46.544Z,21632
2017-03-11T10:24:00.210Z,19552
2017-03-11T10:25:13.927Z,22496
2017-03-11T10:26:27.614Z,22944
2017-03-11T10:27:41.275Z,20864
2017-03-11T10:28:54.969Z,25728
2017-03-11T10:30:08.665Z,29184
2017-03-11T10:31:21.162Z,31552
2017-03-11T10:32:34.850Z,30464
2017-03-11T10:33:48.576Z,31936
2017-03-11T10:35:02.300Z,26592
2017-03-11T10:36:15.971Z,31680
2017-03-11T10:37:29.670Z,29792
2017-03-11T10:38:43.373Z,34752
2017-03-11T10:39:57.048Z,36960
2017-03-11T10:41:10.170Z,35840
2017-03-11T10:42:23.870Z,29568
2017-03-11T10:43:37.551Z,28288
2017-03-11T10:44:51.239Z,34752
2017-03-11T10:46:04.302Z,35904
2017-03-11T10:47:17.979Z,37824
2017-03-11T10:48:31.666Z,35808
2017-03-11T10:49:45.383Z,29568
2017-03-11T10:50:58.483Z,28800
2017-03-11T10:52:11.576Z,38720
2017-03-11T10:53:25.261Z,40704
2017-03-11T10:54:38.963Z,34048
2017-03-11T10:55:52.670Z,28704
2017-03-11T10:57:06.387Z,40864
2017-03-11T10:58:20.078Z,46368
2017-03-11T10:59:33.739Z,45792
2017-03-11T11:00:47.428Z,47072
2017-03-11T11:02:01.144Z,51552
2017-03-11T11:03:14.844Z,38656
2017-03-11T11:04:28.543Z,48288
2017-03-11T11:05:42.265Z,48608
2017-03-11T11:06:55.937Z,51488
2017-03-11T11:08:09.606Z,51744
2017-03-11T11:09:23.306Z,49280
2017-03-11T11:10:36.981Z,48800
2017-03-11T11:11:50.681Z,44992
2017-03-11T11:13:04.392Z,52512
2017-03-11T11:14:18.053Z,58304
2017-03-11T11:15:31.773Z,60864
2017-03-11T11:16:45.448Z,57056
2017-03-11T11:17:59.128Z,56480
2017-03-11T11:19:12.844Z,32704
2017-03-11T11:20:26.524Z,32928
2017-03-11T11:21:40.238Z,54304
2017-03-11T11:22:53.919Z,62784
2017-03-11T11:24:07.587Z,58944
2017-03-11T11:25:21.262Z,36384
2017-03-11T11:26:34.984Z,29088
2017-03-11T11:27:48.080Z,28288
2017-03-11T11:29:01.805Z,48896
2017-03-11T11:30:15.487Z,28960
2017-03-11T11:31:29.212Z,25152
2017-03-11T11:32:42.297Z,28000
2017-03-11T11:33:56.006Z,42208
2017-03-11T11:35:09.705Z,68192
2017-03-11T11:36:22.829Z,75776
2017-03-11T11:37:36.533Z,58432
2017-03-11T11:38:50.220Z,68128
2017-03-11T11:40:03.928Z,70560
2017-03-11T11:41:17.649Z,67328
2017-03-11T11:42:31.348Z,73856
2017-03-11T11:43:45.014Z,79552
2017-03-11T11:44:58.122Z,73632
2017-03-11T11:46:11.228Z,70880
2017-03-11T11:47:24.330Z,45376
2017-03-11T11:48:38.047Z,41664
2017-03-11T11:49:51.771Z,54208
2017-03-11T11:51:05.486Z,65824
2017-03-11T11:52:19.194Z,36288
2017-03-11T11:53:32.909Z,35488
2017-03-11T11:54:46.616Z,46720
2017-03-11T11:56:00.334Z,69792
2017-03-11T11:57:14.071Z,69376
2017-03-11T11:58:27.809Z,49120
2017-03-11T11:59:40.920Z,45024
2017-03-11T12:00:54.626Z,44480
2017-03-11T12:02:08.341Z,65952
2017-03-11T12:03:21.481Z,69024
2017-03-11T12:04:35.151Z,76288
2017-03-11T12:05:48.847Z,77600
2017-03-11T12:07:01.944Z,81536
2017-03-11T12:08:15.666Z,70048
2017-03-11T12:09:29.369Z,75680
2017-03-11T12:10:43.097Z,90496
2017-03-11T12:11:56.833Z,92864
2017-03-11T12:13:10.597Z,89792
2017-03-11T12:14:24.276Z,100576
2017-03-11T12:15:37.980Z,104672
2017-03-11T12:16:51.683Z,106400
2017-03-11T12:18:05.389Z,93664
2017-03-11T12:19:17.923Z,39040
2017-03-11T12:20:31.648Z,59328
2017-03-11T12:21:45.378Z,99968
2017-03-11T12:22:57.892Z,76480
2017-03-11T12:24:11.592Z,96704
2017-03-11T12:25:25.299Z,41728
2017-03-11T12:26:38.400Z,35488
2017-03-11T12:27:52.100Z,38464
2017-03-11T12:29:04.623Z,42688
2017-03-11T12:30:18.325Z,52192
2017-03-11T12:31:32.031Z,44256
2017-03-11T12:32:45.180Z,42784
2017-03-11T12:33:58.887Z,47456
2017-03-11T12:35:11.977Z,39648
2017-03-11T12:36:25.068Z,36896
2017-03-11T12:37:38.772Z,34304
2017-03-11T12:38:52.516Z,35712
2017-03-11T12:40:06.256Z,40768
2017-03-11T12:41:19.969Z,50528
2017-03-11T12:42:33.670Z,63776
2017-03-11T12:43:47.366Z,67168
2017-03-11T12:45:01.082Z,43648
2017-03-11T12:46:14.221Z,43616
2017-03-11T13:18:31.228Z,114528
2017-03-11T13:19:44.953Z,117568
2017-03-11T13:20:58.666Z,119808
2017-03-11T13:22:12.382Z,113472
2017-03-11T13:23:26.108Z,105216
2017-03-11T13:24:39.811Z,115680
2017-03-11T13:25:53.511Z,114208
2017-03-11T13:27:07.242Z,71808
2017-03-11T13:28:20.937Z,48544
2017-03-11T13:29:34.032Z,50368
2017-03-11T13:30:47.703Z,110592
2017-03-11T13:32:00.806Z,124288
2017-03-11T13:33:14.520Z,132256
2017-03-11T13:34:27.650Z,127840
2017-03-11T13:35:41.376Z,120736
2017-03-11T13:36:55.097Z,118016
2017-03-11T13:38:08.812Z,124384
2017-03-11T13:39:22.507Z,123104
2017-03-11T13:40:36.226Z,121408
2017-03-11T13:41:49.953Z,113760
2017-03-11T13:43:03.692Z,110048
2017-03-11T13:44:17.439Z,119616
2017-03-11T13:45:30.569Z,79584
2017-03-11T13:46:43.677Z,117696
2017-03-11T13:47:57.416Z,67680
2017-03-11T13:49:11.102Z,56640
2017-03-11T13:50:24.807Z,85920
2017-03-11T13:51:38.529Z,120160
2017-03-11T13:52:52.254Z,120480
2017-03-11T13:54:05.975Z,113344
2017-03-11T13:55:19.686Z,108992
2017-03-11T13:56:33.461Z,114016
2017-03-11T13:57:47.178Z,122528
2017-03-11T13:59:00.909Z,120832
2017-03-11T14:00:14.634Z,123552
2017-03-11T14:01:28.333Z,123712
2017-03-11T14:02:42.087Z,118144
2017-03-11T14:03:55.805Z,48512
2017-03-11T14:05:09.517Z,119040
2017-03-11T14:06:23.236Z,109344
2017-03-11T14:07:36.942Z,124192
2017-03-11T14:08:50.646Z,121920
2017-03-11T14:10:03.793Z,132192
2017-03-11T14:11:16.886Z,126784
2017-03-11T14:12:29.991Z,130880
2017-03-11T14:13:43.738Z,119648
2017-03-11T14:14:56.845Z,93504
2017-03-11T14:16:10.549Z,69536
2017-03-11T14:17:24.288Z,98816
2017-03-11T14:18:37.974Z,100256
2017-03-11T14:19:51.710Z,123744
2017-03-11T14:21:05.421Z,117248
2017-03-11T14:22:19.159Z,90208
2017-03-11T14:23:32.876Z,56416
2017-03-11T14:24:45.994Z,70816
2017-03-11T14:25:59.719Z,124064
2017-03-11T14:27:13.455Z,123104
2017-03-11T14:28:26.622Z,52928
2017-03-11T14:29:40.319Z,63328
2017-03-11T14:30:52.840Z,96928
2017-03-11T14:32:06.557Z,63328
2017-03-11T14:33:20.415Z,78720
2017-03-11T14:34:34.176Z,95008
2017-03-11T14:35:47.295Z,80480
2017-03-11T14:37:01.055Z,103552
2017-03-11T14:38:14.771Z,109184
2017-03-11T14:39:28.493Z,104608
2017-03-11T14:40:42.176Z,101312
2017-03-11T14:41:55.922Z,109120
2017-03-11T14:43:09.652Z,106144
2017-03-11T14:44:23.330Z,104512
2017-03-11T14:45:35.836Z,98432
2017-03-11T14:46:49.528Z,113088
2017-03-11T14:48:03.228Z,114656
2017-03-11T14:49:16.928Z,92672
2017-03-11T14:50:30.651Z,120256
2017-03-11T14:51:44.584Z,96032
2017-03-11T14:52:58.547Z,67328
2017-03-11T14:54:12.280Z,52992
2017-03-11T14:55:25.974Z,55872
2017-03-11T14:56:39.715Z,88896
2017-03-11T14:57:52.861Z,51296
2017-03-11T14:59:06.574Z,62016
2017-03-11T15:00:19.729Z,55744
2017-03-11T15:01:33.442Z,57728
2017-03-11T15:02:47.181Z,59200
2017-03-11T15:04:00.938Z,50752
2017-03-11T15:05:14.647Z,49856
2017-03-11T15:06:28.384Z,71968
2017-03-11T15:07:42.093Z,48288
2017-03-11T15:08:55.806Z,46272
2017-03-11T15:10:08.914Z,44672
2017-03-11T15:11:22.054Z,46688
2017-03-11T15:12:34.617Z,48192
2017-03-11T15:13:47.805Z,53024
2017-03-11T15:15:00.928Z,45984
2017-03-11T15:16:14.620Z,82048
2017-03-11T15:17:27.736Z,86144
2017-03-11T15:18:41.470Z,90240
2017-03-11T15:19:55.217Z,97856
2017-03-11T15:21:08.925Z,100064
2017-03-11T15:22:22.646Z,99936
2017-03-11T15:23:36.348Z,89344
2017-03-11T15:24:50.070Z,50752
2017-03-11T15:26:03.781Z,56480
2017-03-11T15:27:17.527Z,90016
2017-03-11T15:28:30.049Z,90336
2017-03-11T15:29:43.743Z,43968
2017-03-11T15:30:57.449Z,41696
2017-03-11T15:32:10.564Z,41120
2017-03-11T15:33:24.271Z,40672
2017-03-11T15:34:37.377Z,41856
2017-03-11T15:35:51.068Z,42656
2017-03-11T15:37:04.785Z,44864
2017-03-11T15:38:18.535Z,49024
2017-03-11T15:39:32.248Z,60288
2017-03-11T15:40:45.931Z,123712
2017-03-11T15:41:59.637Z,123232
2017-03-11T15:43:13.368Z,125344
2017-03-11T15:44:27.092Z,125088
2017-03-11T15:45:40.792Z,126336
2017-03-11T15:46:54.488Z,109792
2017-03-11T15:48:08.222Z,124160
2017-03-11T15:49:20.203Z,113056
2017-03-11T15:50:33.887Z,118144
2017-03-11T15:51:47.640Z,116448
2017-03-11T15:53:01.340Z,60064
2017-03-11T15:54:14.518Z,118496
2017-03-11T15:55:28.345Z,117504
2017-03-11T15:56:42.045Z,121824
2017-03-11T15:59:04.089Z,120608
2017-03-11T16:00:17.968Z,118208
2017-03-11T16:01:31.787Z,117280
2017-03-11T16:02:45.487Z,113824
2017-03-11T16:03:59.192Z,121312
2017-03-11T16:05:12.900Z,124480
2017-03-11T16:06:26.705Z,115584
2017-03-11T16:07:40.468Z,115872
2017-03-11T16:08:53.613Z,118464
2017-03-11T16:10:07.393Z,124320
2017-03-11T16:11:21.166Z,125600
2017-03-11T16:12:34.959Z,125120
2017-03-11T16:13:48.082Z,125856
2017-03-11T16:15:01.803Z,120992
2017-03-11T16:16:15.709Z,125312
2017-03-11T16:17:29.531Z,128256
2017-03-11T16:18:43.232Z,119072
2017-03-11T16:19:56.950Z,88608
2017-03-11T16:21:10.100Z,82656
2017-03-11T16:22:24.041Z,88704
2017-03-11T16:23:37.877Z,68448
2017-03-11T16:24:51.606Z,56480
2017-03-11T16:26:05.335Z,54240
2017-03-11T16:27:19.097Z,61664
2017-03-11T16:28:31.878Z,90592
2017-03-11T16:29:45.601Z,70336
2017-03-11T16:30:59.316Z,79200
2017-03-11T16:32:12.716Z,106016
2017-03-11T16:33:26.639Z,98400
2017-03-11T16:34:40.375Z,72480
2017-03-11T16:35:53.530Z,79392
2017-03-11T16:37:07.238Z,79776
2017-03-11T16:38:21.251Z,107232
2017-03-11T16:39:35.158Z,112704
2017-03-11T16:40:47.088Z,119776
2017-03-11T16:42:00.829Z,117504
2017-03-11T16:43:14.627Z,115904
2017-03-11T16:44:28.746Z,102432
2017-03-11T16:45:41.995Z,80000
2017-03-11T16:46:55.972Z,64672
2017-03-11T16:48:10.023Z,56032
2017-03-11T16:49:23.977Z,55392
2017-03-11T16:50:37.889Z,55680
2017-03-11T16:51:51.573Z,55072
2017-03-11T16:53:05.325Z,57792
2017-03-11T16:54:18.667Z,58368
2017-03-11T16:55:32.487Z,56640
2017-03-11T16:56:46.210Z,54880
2017-03-11T16:57:59.337Z,58368
2017-03-11T16:59:13.064Z,59072
2017-03-11T17:00:27.037Z,56448
2017-03-11T17:01:40.881Z,58880
2017-03-11T17:02:54.590Z,49088
2017-03-11T17:04:08.478Z,48032
2017-03-11T17:05:22.361Z,47680
2017-03-11T17:06:36.241Z,47456
2017-03-11T17:07:49.973Z,47072
2017-03-11T17:09:03.119Z,47040
2017-03-11T17:10:17.163Z,47232
2017-03-11T17:12:02.117Z,46944
2017-03-11T17:13:15.910Z,45792
2017-03-11T17:14:29.826Z,44960
2017-03-11T17:15:43.615Z,44384
2017-03-11T17:16:57.327Z,42976
2017-03-11T17:18:09.855Z,41568
2017-03-11T17:19:23.659Z,40800
2017-03-11T17:20:37.455Z,40832
2017-03-11T17:21:51.155Z,41920
2017-03-11T17:23:04.231Z,42912
2017-03-11T17:24:18.002Z,43168
2017-03-11T17:25:31.747Z,42528
2017-03-11T17:26:45.469Z,42624
2017-03-11T17:27:59.182Z,42144
2017-03-11T17:29:12.936Z,41824